Terminal Aerodrome Forecast
Issued by NWS

Home | Current Version | Previous Version | Text Only | Print | Product List | Glossary On
Versions: 1 2 3 4 5 6 7 8 9 10 11 12 13 14 15
556
FTPA31 PHFO 241135
TAFHMK
TAF
PHMK 241135Z 2412/2512 03007KT P6SM FEW015 SCT040
     FM242000 05013G19KT P6SM FEW025 SCT050
     FM250800 05007KT P6SM FEW025 SCT050=

USA.gov is the U.S. government's official web portal to all federal, state and local government web resources and services.